Ashby, Minnesota
Current Conditions -  °F | °C
As of 8:34 PM on Wednesday 17 Dec 2014 (Local Time) from KY63 Reporting Station
Clear Clear  
Wind Chill:   Ceiling: Unl
Heat Index:   Visibility: 10mi
Dew Point:   Wind: 0mph
Humidity: 92%   Direction: NA
Pressure: 30.3"   Gusts: NA
Location:  46.09°N, 95.82°W
Report Text: KY63 180234Z AUTO 00000KT 10SM CLR M13/M14 A3030 RMK AO2 T11301141
Loading
Personal Weather Stations






























Interactive Weather Map New forecast layout! Learn more

10-Day Weather Forecast

Advertisements
Track Severe Weather on mobile